Time,TemperatureF,DewpointF,PressureIn,WindDirection,WindDirectionDegrees,WindSpeedMPH,WindSpeedGustMPH,Humidity,HourlyPrecipIn,Conditions,Clouds,dailyrainin,SoftwareType,DateUTC
2013-01-19 00:04:00,16.0,0.0,30.36,South,190,0.0,0.0,49,0.00,,,0.00,,2013-01-19 05:04:00,
2013-01-19 00:13:00,16.0,0.0,30.36,South,190,0.0,0.0,49,0.00,,,0.00,,2013-01-19 05:13:00,
2013-01-19 00:23:00,16.0,2.0,30.36,South,190,0.0,0.0,52,0.00,,,0.00,,2013-01-19 05:23:00,
2013-01-19 00:33:00,15.0,3.0,30.35,South,190,0.0,0.0,58,0.00,,,0.00,,2013-01-19 05:33:00,
2013-01-19 00:43:00,15.0,3.0,30.35,South,190,0.0,0.0,58,0.00,,,0.00,,2013-01-19 05:43:00,
2013-01-19 00:53:00,15.0,4.0,30.36,South,190,0.0,0.0,60,0.00,,,0.00,,2013-01-19 05:53:00,
2013-01-19 01:03:00,15.0,5.0,30.34,South,190,0.0,0.0,64,0.00,,,0.00,,2013-01-19 06:03:00,
2013-01-19 01:12:00,15.0,5.0,30.34,South,190,0.0,0.0,64,0.00,,,0.00,,2013-01-19 06:12:00,
2013-01-19 01:23:00,15.0,5.0,30.34,South,190,0.0,0.0,64,0.00,,,0.00,,2013-01-19 06:23:00,
2013-01-19 01:33:00,15.0,7.0,30.34,South,190,0.0,0.0,70,0.00,,,0.00,,2013-01-19 06:33:00,
2013-01-19 01:43:00,15.0,7.0,30.34,South,190,0.0,0.0,70,0.00,,,0.00,,2013-01-19 06:43:00,
2013-01-19 01:52:00,15.0,7.0,30.34,South,190,0.0,0.0,70,0.00,,,0.00,,2013-01-19 06:52:00,
2013-01-19 02:02:00,16.0,9.0,30.33,South,190,0.0,0.0,72,0.00,,,0.00,,2013-01-19 07:02:00,
2013-01-19 02:12:00,16.0,9.0,30.33,South,190,0.0,0.0,72,0.00,,,0.00,,2013-01-19 07:12:00,
2013-01-19 02:22:00,16.0,9.0,30.33,South,190,0.0,0.0,73,0.00,,,0.00,,2013-01-19 07:22:00,
2013-01-19 02:33:00,16.0,9.0,30.32,South,190,0.0,0.0,73,0.00,,,0.00,,2013-01-19 07:33:00,
2013-01-19 02:43:00,16.0,9.0,30.32,South,190,0.0,0.0,73,0.00,,,0.00,,2013-01-19 07:43:00,
2013-01-19 02:52:00,16.0,9.0,30.32,South,190,0.0,0.0,74,0.00,,,0.00,,2013-01-19 07:52:00,
2013-01-19 03:02:00,17.0,11.0,30.30,South,190,0.0,0.0,76,0.00,,,0.00,,2013-01-19 08:02:00,
2013-01-19 03:12:00,17.0,11.0,30.30,South,190,0.0,0.0,76,0.00,,,0.00,,2013-01-19 08:12:00,
2013-01-19 03:22:00,18.0,11.0,30.28,South,190,0.0,0.0,72,0.00,,,0.00,,2013-01-19 08:22:00,
2013-01-19 03:33:00,20.0,12.0,30.28,South,190,0.0,0.0,70,0.00,,,0.00,,2013-01-19 08:33:00,
2013-01-19 03:43:00,20.0,12.0,30.28,South,190,0.0,0.0,70,0.00,,,0.00,,2013-01-19 08:43:00,
2013-01-19 03:52:00,22.0,13.0,30.27,South,190,0.0,0.0,67,0.00,,,0.00,,2013-01-19 08:52:00,
2013-01-19 04:02:00,24.0,14.0,30.26,South,190,7.0,11.0,65,0.00,,,0.00,,2013-01-19 09:02:00,
2013-01-19 04:12:00,24.0,14.0,30.26,South,190,7.0,11.0,65,0.00,,,0.00,,2013-01-19 09:12:00,
2013-01-19 04:23:00,25.0,16.0,30.25,South,190,5.0,11.0,69,0.00,,,0.00,,2013-01-19 09:23:00,
2013-01-19 04:33:00,25.0,18.0,30.23,South,190,0.0,5.0,73,0.00,,,0.00,,2013-01-19 09:33:00,
2013-01-19 04:43:00,25.0,18.0,30.23,South,190,0.0,5.0,73,0.00,,,0.00,,2013-01-19 09:43:00,
2013-01-19 04:52:00,25.0,19.0,30.22,South,190,0.0,0.0,76,0.00,,,0.00,,2013-01-19 09:52:00,
2013-01-19 05:02:00,25.0,20.0,30.21,South,190,0.0,0.0,80,0.00,,,0.00,,2013-01-19 10:02:00,
2013-01-19 05:12:00,25.0,20.0,30.21,South,190,0.0,0.0,80,0.00,,,0.00,,2013-01-19 10:12:00,
2013-01-19 05:23:00,25.0,20.0,30.20,South,190,0.0,0.0,82,0.00,,,0.00,,2013-01-19 10:23:00,
2013-01-19 05:33:00,24.0,20.0,30.19,South,190,0.0,0.0,85,0.00,,,0.00,,2013-01-19 10:33:00,
2013-01-19 05:43:00,24.0,20.0,30.19,South,190,0.0,0.0,85,0.00,,,0.00,,2013-01-19 10:43:00,
2013-01-19 05:52:00,24.0,21.0,30.19,South,190,0.0,0.0,87,0.00,,,0.00,,2013-01-19 10:52:00,
2013-01-19 06:03:00,24.0,21.0,30.17,South,190,0.0,0.0,89,0.00,,,0.00,,2013-01-19 11:03:00,
2013-01-19 06:12:00,24.0,21.0,30.17,South,190,0.0,0.0,89,0.00,,,0.00,,2013-01-19 11:12:00,
2013-01-19 06:48:00,30.0,27.0,30.13,South,190,11.0,22.0,88,0.00,,,0.00,,2013-01-19 11:48:00,
2013-01-19 07:47:00,30.0,27.0,30.13,South,190,11.0,22.0,88,0.00,,,0.00,,2013-01-19 12:47:00,
2013-01-19 07:48:00,30.0,28.0,30.11,South,190,12.0,22.0,92,0.00,,,0.00,,2013-01-19 12:48:00,
2013-01-19 07:53:00,30.0,28.0,30.11,South,190,12.0,22.0,93,0.00,,,0.00,,2013-01-19 12:53:00,
2013-01-19 08:03:00,29.0,27.0,30.12,South,190,5.0,10.0,93,0.00,,,0.00,,2013-01-19 13:03:00,
2013-01-19 08:13:00,29.0,27.0,30.12,South,190,5.0,10.0,93,0.00,,,0.00,,2013-01-19 13:13:00,
2013-01-19 08:23:00,29.0,27.0,30.12,South,190,7.0,15.0,93,0.00,,,0.00,,2013-01-19 13:23:00,
2013-01-19 08:34:00,28.0,27.0,30.12,South,190,7.0,15.0,94,0.00,,,0.00,,2013-01-19 13:34:00,
2013-01-19 08:43:00,28.0,27.0,30.12,South,190,7.0,15.0,94,0.00,,,0.00,,2013-01-19 13:43:00,
2013-01-19 08:53:00,28.0,27.0,30.12,South,190,10.0,19.0,94,0.00,,,0.00,,2013-01-19 13:53:00,
2013-01-19 09:03:00,29.0,27.0,30.11,South,190,10.0,20.0,94,0.00,,,0.00,,2013-01-19 14:03:00,
2013-01-19 09:12:00,29.0,27.0,30.11,South,190,10.0,20.0,94,0.00,,,0.00,,2013-01-19 14:12:00,
2013-01-19 09:23:00,29.0,27.0,30.11,South,190,9.0,19.0,94,0.00,,,0.00,,2013-01-19 14:23:00,
2013-01-19 09:34:00,29.0,27.0,30.10,South,190,9.0,15.0,94,0.00,,,0.00,,2013-01-19 14:34:00,
2013-01-19 09:43:00,29.0,27.0,30.10,South,190,9.0,15.0,94,0.00,,,0.00,,2013-01-19 14:43:00,
2013-01-19 09:53:00,30.0,28.0,30.10,South,190,9.0,18.0,94,0.00,,,0.00,,2013-01-19 14:53:00,
2013-01-19 10:03:00,30.0,28.0,30.09,South,190,9.0,21.0,94,0.00,,,0.00,,2013-01-19 15:03:00,
2013-01-19 10:13:00,30.0,28.0,30.09,South,190,9.0,21.0,94,0.00,,,0.00,,2013-01-19 15:13:00,
2013-01-19 10:23:00,30.0,28.0,30.09,South,190,9.0,15.0,94,0.00,,,0.00,,2013-01-19 15:23:00,
2013-01-19 10:33:00,31.0,29.0,30.08,South,190,12.0,18.0,94,0.00,,,0.00,,2013-01-19 15:33:00,
2013-01-19 10:43:00,31.0,29.0,30.08,South,190,12.0,18.0,94,0.00,,,0.00,,2013-01-19 15:43:00,
2013-01-19 10:53:00,31.0,29.0,30.08,South,190,10.0,17.0,93,0.00,,,0.00,,2013-01-19 15:53:00,
2013-01-19 11:03:00,31.0,29.0,30.06,South,190,0.0,14.0,93,0.00,,,0.00,,2013-01-19 16:03:00,
2013-01-19 11:13:00,31.0,29.0,30.06,South,190,0.0,14.0,93,0.00,,,0.00,,2013-01-19 16:13:00,
2013-01-19 11:23:00,31.0,29.0,30.05,South,190,0.0,0.0,93,0.00,,,0.00,,2013-01-19 16:23:00,
2013-01-19 11:33:00,32.0,30.0,30.03,South,190,0.0,0.0,91,0.00,,,0.00,,2013-01-19 16:33:00,
2013-01-19 11:43:00,32.0,30.0,30.03,South,190,0.0,0.0,91,0.00,,,0.00,,2013-01-19 16:43:00,
2013-01-19 11:53:00,32.0,30.0,30.03,South,190,0.0,0.0,91,0.00,,,0.00,,2013-01-19 16:53:00,
2013-01-19 12:03:00,33.0,30.0,30.01,South,190,0.0,0.0,90,0.00,,,0.00,,2013-01-19 17:03:00,
2013-01-19 12:21:00,33.0,30.0,30.01,South,190,0.0,0.0,90,0.00,,,0.00,,2013-01-19 17:21:00,
2013-01-19 12:29:00,33.0,30.0,30.01,South,190,0.0,0.0,89,0.00,,,0.00,,2013-01-19 17:29:00,
2013-01-19 12:37:00,33.0,29.0,29.99,South,190,0.0,0.0,86,0.00,,,0.00,,2013-01-19 17:37:00,
2013-01-19 12:49:00,33.0,29.0,29.99,South,190,0.0,0.0,86,0.00,,,0.00,,2013-01-19 17:49:00,
2013-01-19 12:54:00,33.0,29.0,29.99,South,190,0.0,0.0,84,0.01,,,0.01,,2013-01-19 17:54:00,
2013-01-19 13:13:00,34.0,29.0,29.98,South,190,0.0,0.0,81,0.01,,,0.01,,2013-01-19 18:13:00,
2013-01-19 13:29:00,34.0,28.0,29.97,South,190,0.0,0.0,79,0.01,,,0.01,,2013-01-19 18:29:00,
2013-01-19 13:37:00,35.0,29.0,29.97,South,190,0.0,0.0,78,0.01,,,0.01,,2013-01-19 18:37:00,
2013-01-19 13:45:00,35.0,29.0,29.97,South,190,0.0,0.0,78,0.01,,,0.01,,2013-01-19 18:45:00,
2013-01-19 14:10:00,35.0,28.0,29.96,South,190,0.0,0.0,76,0.00,,,0.01,,2013-01-19 19:10:00,
2013-01-19 14:31:00,35.0,29.0,29.96,South,190,0.0,0.0,77,0.00,,,0.01,,2013-01-19 19:31:00,
2013-01-19 14:40:00,35.0,28.0,29.96,South,190,0.0,0.0,76,0.00,,,0.01,,2013-01-19 19:40:00,
2013-01-19 14:48:00,35.0,28.0,29.96,South,190,0.0,0.0,76,0.00,,,0.01,,2013-01-19 19:48:00,
2013-01-19 14:54:00,35.0,29.0,29.96,South,190,0.0,0.0,77,0.00,,,0.01,,2013-01-19 19:54:00,
2013-01-19 15:20:00,35.0,28.0,29.96,South,190,0.0,0.0,76,0.00,,,0.01,,2013-01-19 20:20:00,
2013-01-19 15:39:00,34.0,28.0,29.96,South,190,0.0,0.0,77,0.00,,,0.01,,2013-01-19 20:39:00,
2013-01-19 15:49:00,34.0,28.0,29.96,South,190,0.0,0.0,77,0.00,,,0.01,,2013-01-19 20:49:00,
2013-01-19 15:54:00,34.0,27.0,29.96,South,190,0.0,0.0,76,0.00,,,0.01,,2013-01-19 20:54:00,
2013-01-19 16:08:00,34.0,27.0,29.96,South,190,0.0,0.0,76,0.00,,,0.01,,2013-01-19 21:08:00,
2013-01-19 16:15:00,34.0,27.0,29.96,South,190,0.0,0.0,76,0.00,,,0.01,,2013-01-19 21:15:00,
2013-01-19 16:28:00,34.0,27.0,29.95,South,190,0.0,0.0,75,0.00,,,0.01,,2013-01-19 21:28:00,
2013-01-19 16:46:00,33.0,27.0,29.95,South,190,0.0,0.0,79,0.00,,,0.01,,2013-01-19 21:46:00,
2013-01-19 16:52:00,33.0,27.0,29.95,South,190,0.0,0.0,79,0.00,,,0.01,,2013-01-19 21:52:00,
2013-01-19 17:28:00,32.0,28.0,29.95,South,190,0.0,0.0,86,0.00,,,0.01,,2013-01-19 22:28:00,
2013-01-19 17:35:00,31.0,28.0,29.96,South,190,0.0,0.0,88,0.00,,,0.01,,2013-01-19 22:35:00,
2013-01-19 17:48:00,31.0,28.0,29.96,South,190,0.0,0.0,88,0.00,,,0.01,,2013-01-19 22:48:00,
2013-01-19 17:55:00,31.0,28.0,29.96,South,190,0.0,0.0,89,0.00,,,0.01,,2013-01-19 22:55:00,
2013-01-19 18:14:00,31.0,28.0,29.96,South,190,0.0,0.0,90,0.00,,,0.01,,2013-01-19 23:14:00,
2013-01-19 18:27:00,31.0,28.0,29.96,South,190,0.0,0.0,90,0.00,,,0.01,,2013-01-19 23:27:00,
2013-01-19 18:35:00,31.0,28.0,29.96,South,190,0.0,0.0,90,0.00,,,0.01,,2013-01-19 23:35:00,
2013-01-19 19:00:00,31.0,29.0,29.97,South,190,0.0,0.0,91,0.00,,,0.01,,2013-01-20 00:00:00,
2013-01-19 19:09:00,30.0,28.0,29.97,South,190,0.0,0.0,91,0.00,,,0.01,,2013-01-20 00:09:00,
2013-01-19 19:16:00,30.0,28.0,29.97,South,190,0.0,0.0,91,0.00,,,0.01,,2013-01-20 00:16:00,
2013-01-19 19:26:00,30.0,28.0,29.97,South,190,0.0,0.0,91,0.00,,,0.01,,2013-01-20 00:26:00,
2013-01-19 19:47:00,30.0,28.0,29.97,South,190,0.0,0.0,92,0.00,,,0.01,,2013-01-20 00:47:00,
2013-01-19 19:54:00,30.0,28.0,29.97,South,190,0.0,0.0,92,0.00,,,0.01,,2013-01-20 00:54:00,
2013-01-19 20:04:00,30.0,28.0,29.96,South,190,0.0,0.0,92,0.00,,,0.01,,2013-01-20 01:04:00,
2013-01-19 20:21:00,30.0,28.0,29.96,South,190,0.0,0.0,92,0.00,,,0.01,,2013-01-20 01:21:00,
2013-01-19 20:28:00,30.0,28.0,29.96,South,190,0.0,0.0,92,0.00,,,0.01,,2013-01-20 01:28:00,
2013-01-19 20:38:00,30.0,28.0,29.96,South,190,0.0,0.0,93,0.00,,,0.01,,2013-01-20 01:38:00,
2013-01-19 20:49:00,30.0,28.0,29.96,South,190,0.0,0.0,93,0.00,,,0.01,,2013-01-20 01:49:00,
2013-01-19 20:59:00,30.0,28.0,29.96,South,190,0.0,0.0,93,0.00,,,0.01,,2013-01-20 01:59:00,
2013-01-19 21:09:00,30.0,28.0,29.96,South,190,0.0,0.0,93,0.00,,,0.01,,2013-01-20 02:09:00,
2013-01-19 21:15:00,30.0,28.0,29.96,South,190,0.0,0.0,93,0.00,,,0.01,,2013-01-20 02:15:00,
2013-01-19 21:27:00,30.0,28.0,29.96,South,190,0.0,0.0,93,0.00,,,0.01,,2013-01-20 02:27:00,
2013-01-19 21:37:00,29.0,27.0,29.95,South,190,0.0,0.0,93,0.00,,,0.01,,2013-01-20 02:37:00,
2013-01-19 21:45:00,29.0,27.0,29.95,South,190,0.0,0.0,93,0.00,,,0.01,,2013-01-20 02:45:00,
2013-01-19 22:09:00,29.0,27.0,29.95,South,190,0.0,0.0,94,0.00,,,0.01,,2013-01-20 03:09:00,
2013-01-19 22:15:00,29.0,27.0,29.95,South,190,0.0,0.0,94,0.00,,,0.01,,2013-01-20 03:15:00,
2013-01-19 22:26:00,30.0,28.0,29.95,South,190,0.0,0.0,94,0.00,,,0.01,,2013-01-20 03:26:00,
2013-01-19 22:39:00,30.0,28.0,29.93,South,190,0.0,0.0,94,0.00,,,0.01,,2013-01-20 03:39:00,
2013-01-19 22:45:00,30.0,28.0,29.93,South,190,0.0,0.0,94,0.00,,,0.01,,2013-01-20 03:45:00,
2013-01-19 22:54:00,30.0,28.0,29.93,South,190,0.0,0.0,94,0.00,,,0.01,,2013-01-20 03:54:00,
2013-01-19 23:05:00,30.0,28.0,29.92,South,190,0.0,0.0,94,0.00,,,0.01,,2013-01-20 04:05:00,
2013-01-19 23:15:00,30.0,28.0,29.92,South,190,0.0,0.0,94,0.00,,,0.01,,2013-01-20 04:15:00,
2013-01-19 23:27:00,30.0,28.0,29.92,South,190,0.0,0.0,94,0.00,,,0.01,,2013-01-20 04:27:00,
2013-01-19 23:37:00,30.0,28.0,29.92,South,190,0.0,0.0,94,0.00,,,0.01,,2013-01-20 04:37:00,
2013-01-19 23:45:00,30.0,28.0,29.92,South,190,0.0,0.0,94,0.00,,,0.01,,2013-01-20 04:45:00,
2013-01-19 23:55:00,30.0,28.0,29.91,South,190,0.0,0.0,94,0.00,,,0.01,,2013-01-20 04:55:00,